Pagrindinis puslapis
METAR-TAF:

METAR-TAF

Oro uostai :

Nenana, Aliaska, Jungtinės Amerikos Valstijos

platuma: 64-33N, ilguma: 149-05W, Aukštis: 110 m

Dabartinis oras

Ataskaita buvo paskelbta 9 minutes, ne 20:53 UTC
Ramus vėjas
Temperatūra -8°C
Drėgmė 85%
Slėgis 1019 hPa
Matomumas: 16.1 km
Mažai debesys ne aukštis 7000 ft

METAR: PANN 282053Z AUTO 00000KT 10SM FEW070 M08/M10 A3009 RMK AO2 SLP202 T10781100 52005 TSNO

Laikas: 13:02 (21:02 UTC)


TAF: trūkstamas

Orai ataskaitas ir orų prognozės (METAR, TAF).

turimą stotys yra geltonos ir raudonos taškus žemėlapyje.

Perkelti pele per norėdami pamatyti stoties vardą.

Tada spustelėkite, norėdami matyti oro stebėjimo ir prognozės.

Norėdami pakeisti žemėlapį: spustelėkite ant žalios mygtukų su juodo kryžiaus žemyn,; žalią mygtuką su brūkšneliu, jei norite nutolinti; arba žalių rodyklių gretimoms žemėlapius.


METAR-TAF: